sensor_id;sensor_type;location;lat;lon;timestamp;P1;durP1;ratioP1;P2;durP2;ratioP2
58252;SDS011;44050;48.884;8.762;2023-03-14T00:01:17;0.05;;;0.05;;
58252;SDS011;44050;48.884;8.762;2023-03-14T00:03:49;0.80;;;0.22;;
58252;SDS011;44050;48.884;8.762;2023-03-14T00:06:19;0.55;;;0.38;;
58252;SDS011;44050;48.884;8.762;2023-03-14T00:11:22;0.00;;;0.00;;
58252;SDS011;44050;48.884;8.762;2023-03-14T00:13:53;0.20;;;0.20;;
58252;SDS011;44050;48.884;8.762;2023-03-14T00:16:23;0.10;;;0.10;;
58252;SDS011;44050;48.884;8.762;2023-03-14T00:18:54;0.65;;;0.28;;
58252;SDS011;44050;48.884;8.762;2023-03-14T00:21:25;0.00;;;0.00;;
58252;SDS011;44050;48.884;8.762;2023-03-14T00:23:55;4.47;;;0.52;;
58252;SDS011;44050;48.884;8.762;2023-03-14T00:26:26;1.02;;;0.30;;
58252;SDS011;44050;48.884;8.762;2023-03-14T00:28:57;0.38;;;0.00;;
58252;SDS011;44050;48.884;8.762;2023-03-14T00:31:28;0.22;;;0.22;;
58252;SDS011;44050;48.884;8.762;2023-03-14T00:33:58;0.10;;;0.10;;
58252;SDS011;44050;48.884;8.762;2023-03-14T00:36:29;0.10;;;0.10;;
58252;SDS011;44050;48.884;8.762;2023-03-14T00:39:00;1.30;;;0.20;;
58252;SDS011;44050;48.884;8.762;2023-03-14T00:41:31;0.20;;;0.20;;
58252;SDS011;44050;48.884;8.762;2023-03-14T00:44:01;0.10;;;0.10;;
58252;SDS011;44050;48.884;8.762;2023-03-14T00:46:32;0.00;;;0.00;;
58252;SDS011;44050;48.884;8.762;2023-03-14T00:49:03;1.90;;;0.40;;
58252;SDS011;44050;48.884;8.762;2023-03-14T00:51:34;0.40;;;0.40;;
58252;SDS011;44050;48.884;8.762;2023-03-14T00:54:05;0.63;;;0.38;;
58252;SDS011;44050;48.884;8.762;2023-03-14T00:56:36;2.30;;;0.68;;
58252;SDS011;44050;48.884;8.762;2023-03-14T00:59:06;0.17;;;0.17;;
58252;SDS011;44050;48.884;8.762;2023-03-14T01:01:38;0.20;;;0.20;;
58252;SDS011;44050;48.884;8.762;2023-03-14T01:04:10;0.13;;;0.13;;
58252;SDS011;44050;48.884;8.762;2023-03-14T01:06:41;0.75;;;0.32;;
58252;SDS011;44050;48.884;8.762;2023-03-14T01:09:11;0.00;;;0.00;;
58252;SDS011;44050;48.884;8.762;2023-03-14T01:11:42;0.43;;;0.35;;
58252;SDS011;44050;48.884;8.762;2023-03-14T01:14:16;0.10;;;0.10;;
58252;SDS011;44050;48.884;8.762;2023-03-14T01:16:47;0.15;;;0.15;;
58252;SDS011;44050;48.884;8.762;2023-03-14T01:19:18;0.40;;;0.20;;
58252;SDS011;44050;48.884;8.762;2023-03-14T01:21:49;0.45;;;0.15;;
58252;SDS011;44050;48.884;8.762;2023-03-14T01:24:19;0.20;;;0.20;;
58252;SDS011;44050;48.884;8.762;2023-03-14T01:29:21;0.00;;;0.00;;
58252;SDS011;44050;48.884;8.762;2023-03-14T01:31:52;0.00;;;0.00;;
58252;SDS011;44050;48.884;8.762;2023-03-14T01:34:23;8.45;;;0.52;;
58252;SDS011;44050;48.884;8.762;2023-03-14T01:36:54;0.40;;;0.15;;
58252;SDS011;44050;48.884;8.762;2023-03-14T01:39:25;0.63;;;0.15;;
58252;SDS011;44050;48.884;8.762;2023-03-14T01:41:56;0.00;;;0.00;;
58252;SDS011;44050;48.884;8.762;2023-03-14T01:44:27;0.05;;;0.05;;
58252;SDS011;44050;48.884;8.762;2023-03-14T01:46:58;0.10;;;0.10;;
58252;SDS011;44050;48.884;8.762;2023-03-14T01:49:32;0.20;;;0.17;;
58252;SDS011;44050;48.884;8.762;2023-03-14T01:54:52;0.65;;;0.10;;
58252;SDS011;44050;48.884;8.762;2023-03-14T01:57:41;0.10;;;0.10;;
58252;SDS011;44050;48.884;8.762;2023-03-14T02:00:17;0.00;;;0.00;;
58252;SDS011;44050;48.884;8.762;2023-03-14T02:02:52;0.60;;;0.47;;
58252;SDS011;44050;48.884;8.762;2023-03-14T02:05:26;0.20;;;0.20;;
58252;SDS011;44050;48.884;8.762;2023-03-14T02:08:20;0.05;;;0.05;;
58252;SDS011;44050;48.884;8.762;2023-03-14T02:10:59;0.28;;;0.22;;
58252;SDS011;44050;48.884;8.762;2023-03-14T02:13:48;0.20;;;0.20;;
58252;SDS011;44050;48.884;8.762;2023-03-14T02:16:37;0.75;;;0.03;;
58252;SDS011;44050;48.884;8.762;2023-03-14T02:19:39;0.08;;;0.08;;
58252;SDS011;44050;48.884;8.762;2023-03-14T02:22:24;0.20;;;0.20;;
58252;SDS011;44050;48.884;8.762;2023-03-14T02:25:08;2.17;;;0.20;;
58252;SDS011;44050;48.884;8.762;2023-03-14T02:27:39;0.10;;;0.10;;
58252;SDS011;44050;48.884;8.762;2023-03-14T02:32:50;1.90;;;0.57;;
58252;SDS011;44050;48.884;8.762;2023-03-14T02:35:23;4.07;;;0.38;;
58252;SDS011;44050;48.884;8.762;2023-03-14T02:37:56;1.00;;;0.20;;
58252;SDS011;44050;48.884;8.762;2023-03-14T02:40:32;0.10;;;0.10;;
58252;SDS011;44050;48.884;8.762;2023-03-14T02:43:03;0.00;;;0.00;;
58252;SDS011;44050;48.884;8.762;2023-03-14T02:48:11;0.55;;;0.55;;
58252;SDS011;44050;48.884;8.762;2023-03-14T02:50:43;0.28;;;0.17;;
58252;SDS011;44050;48.884;8.762;2023-03-14T02:53:16;0.00;;;0.00;;
58252;SDS011;44050;48.884;8.762;2023-03-14T02:55:48;0.30;;;0.20;;
58252;SDS011;44050;48.884;8.762;2023-03-14T02:58:21;1.35;;;0.10;;
58252;SDS011;44050;48.884;8.762;2023-03-14T03:00:56;0.10;;;0.08;;
58252;SDS011;44050;48.884;8.762;2023-03-14T03:03:27;0.20;;;0.20;;
58252;SDS011;44050;48.884;8.762;2023-03-14T03:05:58;0.20;;;0.20;;
58252;SDS011;44050;48.884;8.762;2023-03-14T03:08:29;0.40;;;0.10;;
58252;SDS011;44050;48.884;8.762;2023-03-14T03:11:01;0.00;;;0.00;;
58252;SDS011;44050;48.884;8.762;2023-03-14T03:13:34;1.88;;;0.75;;
58252;SDS011;44050;48.884;8.762;2023-03-14T03:16:06;0.45;;;0.20;;
58252;SDS011;44050;48.884;8.762;2023-03-14T03:18:39;1.35;;;0.17;;
58252;SDS011;44050;48.884;8.762;2023-03-14T03:21:09;0.63;;;0.17;;
58252;SDS011;44050;48.884;8.762;2023-03-14T03:23:40;0.35;;;0.10;;
58252;SDS011;44050;48.884;8.762;2023-03-14T03:26:11;0.32;;;0.20;;
58252;SDS011;44050;48.884;8.762;2023-03-14T03:28:42;0.00;;;0.00;;
58252;SDS011;44050;48.884;8.762;2023-03-14T03:31:13;0.35;;;0.00;;
58252;SDS011;44050;48.884;8.762;2023-03-14T03:33:44;0.20;;;0.20;;
58252;SDS011;44050;48.884;8.762;2023-03-14T03:36:15;0.80;;;0.25;;
58252;SDS011;44050;48.884;8.762;2023-03-14T03:38:45;0.90;;;0.43;;
58252;SDS011;44050;48.884;8.762;2023-03-14T03:41:16;2.42;;;0.40;;
58252;SDS011;44050;48.884;8.762;2023-03-14T03:43:47;2.30;;;0.10;;
58252;SDS011;44050;48.884;8.762;2023-03-14T03:46:20;0.10;;;0.10;;
58252;SDS011;44050;48.884;8.762;2023-03-14T03:48:58;0.10;;;0.10;;
58252;SDS011;44050;48.884;8.762;2023-03-14T03:51:31;0.10;;;0.10;;
58252;SDS011;44050;48.884;8.762;2023-03-14T03:54:01;0.08;;;0.08;;
58252;SDS011;44050;48.884;8.762;2023-03-14T03:56:36;0.00;;;0.00;;
58252;SDS011;44050;48.884;8.762;2023-03-14T03:59:07;0.30;;;0.30;;
58252;SDS011;44050;48.884;8.762;2023-03-14T04:01:38;1.13;;;0.10;;
58252;SDS011;44050;48.884;8.762;2023-03-14T04:04:09;0.50;;;0.28;;
58252;SDS011;44050;48.884;8.762;2023-03-14T04:06:40;0.25;;;0.25;;
58252;SDS011;44050;48.884;8.762;2023-03-14T04:09:12;0.25;;;0.17;;
58252;SDS011;44050;48.884;8.762;2023-03-14T04:11:52;0.10;;;0.10;;
58252;SDS011;44050;48.884;8.762;2023-03-14T04:14:25;0.82;;;0.30;;
58252;SDS011;44050;48.884;8.762;2023-03-14T04:17:07;1.85;;;0.20;;
58252;SDS011;44050;48.884;8.762;2023-03-14T04:19:38;0.45;;;0.45;;
58252;SDS011;44050;48.884;8.762;2023-03-14T04:24:48;0.45;;;0.45;;
58252;SDS011;44050;48.884;8.762;2023-03-14T04:27:19;0.38;;;0.15;;
58252;SDS011;44050;48.884;8.762;2023-03-14T04:29:51;0.85;;;0.10;;
58252;SDS011;44050;48.884;8.762;2023-03-14T04:32:28;0.63;;;0.50;;
58252;SDS011;44050;48.884;8.762;2023-03-14T04:35:01;0.20;;;0.20;;
58252;SDS011;44050;48.884;8.762;2023-03-14T04:37:31;2.00;;;0.35;;
58252;SDS011;44050;48.884;8.762;2023-03-14T04:40:02;2.08;;;0.45;;
58252;SDS011;44050;48.884;8.762;2023-03-14T04:42:37;1.33;;;0.10;;
58252;SDS011;44050;48.884;8.762;2023-03-14T04:45:09;0.50;;;0.30;;
58252;SDS011;44050;48.884;8.762;2023-03-14T04:47:42;1.00;;;0.30;;
58252;SDS011;44050;48.884;8.762;2023-03-14T04:50:17;1.50;;;0.85;;
58252;SDS011;44050;48.884;8.762;2023-03-14T04:52:48;0.57;;;0.43;;
58252;SDS011;44050;48.884;8.762;2023-03-14T04:55:19;0.25;;;0.15;;
58252;SDS011;44050;48.884;8.762;2023-03-14T04:57:50;0.50;;;0.10;;
58252;SDS011;44050;48.884;8.762;2023-03-14T05:02:55;1.95;;;0.32;;
58252;SDS011;44050;48.884;8.762;2023-03-14T05:05:34;0.17;;;0.17;;
58252;SDS011;44050;48.884;8.762;2023-03-14T05:08:25;0.88;;;0.32;;
58252;SDS011;44050;48.884;8.762;2023-03-14T05:11:22;0.15;;;0.15;;
58252;SDS011;44050;48.884;8.762;2023-03-14T05:14:05;0.15;;;0.15;;
58252;SDS011;44050;48.884;8.762;2023-03-14T05:16:47;0.75;;;0.10;;
58252;SDS011;44050;48.884;8.762;2023-03-14T05:19:27;0.57;;;0.45;;
58252;SDS011;44050;48.884;8.762;2023-03-14T05:22:13;1.27;;;0.40;;
58252;SDS011;44050;48.884;8.762;2023-03-14T05:25:23;0.30;;;0.30;;
58252;SDS011;44050;48.884;8.762;2023-03-14T05:28:25;0.68;;;0.10;;
58252;SDS011;44050;48.884;8.762;2023-03-14T05:31:23;0.50;;;0.30;;
58252;SDS011;44050;48.884;8.762;2023-03-14T05:34:20;0.20;;;0.20;;
58252;SDS011;44050;48.884;8.762;2023-03-14T05:37:11;0.40;;;0.25;;
58252;SDS011;44050;48.884;8.762;2023-03-14T05:40:08;0.10;;;0.10;;
58252;SDS011;44050;48.884;8.762;2023-03-14T05:42:46;0.20;;;0.20;;
58252;SDS011;44050;48.884;8.762;2023-03-14T05:45:36;1.17;;;0.20;;
58252;SDS011;44050;48.884;8.762;2023-03-14T05:48:32;0.55;;;0.13;;
58252;SDS011;44050;48.884;8.762;2023-03-14T05:51:23;1.08;;;0.20;;
58252;SDS011;44050;48.884;8.762;2023-03-14T05:54:06;1.88;;;0.32;;
58252;SDS011;44050;48.884;8.762;2023-03-14T05:56:58;0.20;;;0.20;;
58252;SDS011;44050;48.884;8.762;2023-03-14T05:59:38;0.20;;;0.20;;
58252;SDS011;44050;48.884;8.762;2023-03-14T06:02:28;1.17;;;0.10;;
58252;SDS011;44050;48.884;8.762;2023-03-14T06:05:07;0.22;;;0.22;;
58252;SDS011;44050;48.884;8.762;2023-03-14T06:07:41;2.20;;;0.00;;
58252;SDS011;44050;48.884;8.762;2023-03-14T06:10:15;0.08;;;0.08;;
58252;SDS011;44050;48.884;8.762;2023-03-14T06:12:46;0.15;;;0.15;;
58252;SDS011;44050;48.884;8.762;2023-03-14T06:15:17;0.63;;;0.20;;
58252;SDS011;44050;48.884;8.762;2023-03-14T06:17:53;0.00;;;0.00;;
58252;SDS011;44050;48.884;8.762;2023-03-14T06:20:31;1.17;;;0.00;;
58252;SDS011;44050;48.884;8.762;2023-03-14T06:23:05;2.85;;;0.20;;
58252;SDS011;44050;48.884;8.762;2023-03-14T06:25:37;2.35;;;0.45;;
58252;SDS011;44050;48.884;8.762;2023-03-14T06:28:08;0.75;;;0.10;;
58252;SDS011;44050;48.884;8.762;2023-03-14T06:30:39;0.10;;;0.10;;
58252;SDS011;44050;48.884;8.762;2023-03-14T06:33:13;0.10;;;0.10;;
58252;SDS011;44050;48.884;8.762;2023-03-14T06:35:46;0.73;;;0.22;;
58252;SDS011;44050;48.884;8.762;2023-03-14T06:38:16;0.43;;;0.10;;
58252;SDS011;44050;48.884;8.762;2023-03-14T06:40:48;0.20;;;0.10;;
58252;SDS011;44050;48.884;8.762;2023-03-14T06:43:24;0.90;;;0.50;;
58252;SDS011;44050;48.884;8.762;2023-03-14T06:45:56;0.20;;;0.10;;
58252;SDS011;44050;48.884;8.762;2023-03-14T06:48:27;0.00;;;0.00;;
58252;SDS011;44050;48.884;8.762;2023-03-14T06:51:01;0.57;;;0.35;;
58252;SDS011;44050;48.884;8.762;2023-03-14T06:53:32;2.13;;;0.47;;
58252;SDS011;44050;48.884;8.762;2023-03-14T06:56:06;0.30;;;0.30;;
58252;SDS011;44050;48.884;8.762;2023-03-14T06:58:38;0.43;;;0.20;;
58252;SDS011;44050;48.884;8.762;2023-03-14T07:01:15;0.38;;;0.38;;
58252;SDS011;44050;48.884;8.762;2023-03-14T07:03:48;0.10;;;0.10;;
58252;SDS011;44050;48.884;8.762;2023-03-14T07:06:19;0.20;;;0.20;;
58252;SDS011;44050;48.884;8.762;2023-03-14T07:08:49;0.08;;;0.08;;
58252;SDS011;44050;48.884;8.762;2023-03-14T07:11:21;0.52;;;0.20;;
58252;SDS011;44050;48.884;8.762;2023-03-14T07:16:24;0.00;;;0.00;;
58252;SDS011;44050;48.884;8.762;2023-03-14T07:18:59;0.13;;;0.13;;
58252;SDS011;44050;48.884;8.762;2023-03-14T07:24:02;0.28;;;0.28;;
58252;SDS011;44050;48.884;8.762;2023-03-14T07:26:35;0.10;;;0.10;;
58252;SDS011;44050;48.884;8.762;2023-03-14T07:29:06;0.20;;;0.13;;
58252;SDS011;44050;48.884;8.762;2023-03-14T07:34:08;0.00;;;0.00;;
58252;SDS011;44050;48.884;8.762;2023-03-14T07:36:42;0.22;;;0.08;;
58252;SDS011;44050;48.884;8.762;2023-03-14T07:39:13;0.43;;;0.25;;
58252;SDS011;44050;48.884;8.762;2023-03-14T07:42:05;2.85;;;0.10;;
58252;SDS011;44050;48.884;8.762;2023-03-14T07:44:55;0.00;;;0.00;;
58252;SDS011;44050;48.884;8.762;2023-03-14T07:47:26;0.10;;;0.10;;
58252;SDS011;44050;48.884;8.762;2023-03-14T07:49:57;0.00;;;0.00;;
58252;SDS011;44050;48.884;8.762;2023-03-14T07:52:28;0.10;;;0.10;;
58252;SDS011;44050;48.884;8.762;2023-03-14T07:54:59;0.00;;;0.00;;
58252;SDS011;44050;48.884;8.762;2023-03-14T07:57:29;0.10;;;0.00;;
58252;SDS011;44050;48.884;8.762;2023-03-14T08:00:00;0.00;;;0.00;;
58252;SDS011;44050;48.884;8.762;2023-03-14T08:02:31;0.05;;;0.05;;
58252;SDS011;44050;48.884;8.762;2023-03-14T08:05:02;0.00;;;0.00;;
58252;SDS011;44050;48.884;8.762;2023-03-14T08:10:04;0.23;;;0.20;;
58252;SDS011;44050;48.884;8.762;2023-03-14T08:12:35;2.35;;;0.30;;
58252;SDS011;44050;48.884;8.762;2023-03-14T08:15:06;0.00;;;0.00;;
58252;SDS011;44050;48.884;8.762;2023-03-14T08:17:37;0.05;;;0.00;;
58252;SDS011;44050;48.884;8.762;2023-03-14T08:20:08;0.68;;;0.20;;
58252;SDS011;44050;48.884;8.762;2023-03-14T08:22:41;0.00;;;0.00;;
58252;SDS011;44050;48.884;8.762;2023-03-14T08:25:12;0.00;;;0.00;;
58252;SDS011;44050;48.884;8.762;2023-03-14T08:27:43;0.03;;;0.00;;
58252;SDS011;44050;48.884;8.762;2023-03-14T08:32:45;2.63;;;0.10;;
58252;SDS011;44050;48.884;8.762;2023-03-14T08:35:15;0.00;;;0.00;;
58252;SDS011;44050;48.884;8.762;2023-03-14T08:37:46;0.00;;;0.00;;
58252;SDS011;44050;48.884;8.762;2023-03-14T08:40:17;0.10;;;0.10;;
58252;SDS011;44050;48.884;8.762;2023-03-14T08:42:48;0.00;;;0.00;;
58252;SDS011;44050;48.884;8.762;2023-03-14T08:45:19;0.00;;;0.00;;
58252;SDS011;44050;48.884;8.762;2023-03-14T08:47:49;2.20;;;0.52;;
58252;SDS011;44050;48.884;8.762;2023-03-14T08:50:20;0.20;;;0.20;;
58252;SDS011;44050;48.884;8.762;2023-03-14T08:52:53;0.00;;;0.00;;
58252;SDS011;44050;48.884;8.762;2023-03-14T08:55:24;0.00;;;0.00;;
58252;SDS011;44050;48.884;8.762;2023-03-14T08:57:55;0.10;;;0.10;;
58252;SDS011;44050;48.884;8.762;2023-03-14T09:00:25;0.00;;;0.00;;
58252;SDS011;44050;48.884;8.762;2023-03-14T09:02:56;0.00;;;0.00;;
58252;SDS011;44050;48.884;8.762;2023-03-14T09:05:27;0.10;;;0.10;;
58252;SDS011;44050;48.884;8.762;2023-03-14T09:07:58;0.00;;;0.00;;
58252;SDS011;44050;48.884;8.762;2023-03-14T09:10:29;0.00;;;0.00;;
58252;SDS011;44050;48.884;8.762;2023-03-14T09:12:59;0.25;;;0.10;;
58252;SDS011;44050;48.884;8.762;2023-03-14T09:18:01;0.00;;;0.00;;
58252;SDS011;44050;48.884;8.762;2023-03-14T09:20:32;0.10;;;0.10;;
58252;SDS011;44050;48.884;8.762;2023-03-14T09:23:03;0.00;;;0.00;;
58252;SDS011;44050;48.884;8.762;2023-03-14T09:25:33;0.38;;;0.25;;
58252;SDS011;44050;48.884;8.762;2023-03-14T09:28:04;0.00;;;0.00;;
58252;SDS011;44050;48.884;8.762;2023-03-14T09:30:35;0.05;;;0.05;;
58252;SDS011;44050;48.884;8.762;2023-03-14T09:33:05;0.52;;;0.00;;
58252;SDS011;44050;48.884;8.762;2023-03-14T09:35:36;2.20;;;0.45;;
58252;SDS011;44050;48.884;8.762;2023-03-14T09:38:07;0.00;;;0.00;;
58252;SDS011;44050;48.884;8.762;2023-03-14T09:40:38;0.00;;;0.00;;
58252;SDS011;44050;48.884;8.762;2023-03-14T09:43:09;0.65;;;0.03;;
58252;SDS011;44050;48.884;8.762;2023-03-14T09:45:41;0.50;;;0.50;;
58252;SDS011;44050;48.884;8.762;2023-03-14T09:48:19;0.00;;;0.00;;
58252;SDS011;44050;48.884;8.762;2023-03-14T09:50:51;0.52;;;0.17;;
58252;SDS011;44050;48.884;8.762;2023-03-14T09:53:27;0.43;;;0.00;;
58252;SDS011;44050;48.884;8.762;2023-03-14T09:55:59;0.10;;;0.10;;
58252;SDS011;44050;48.884;8.762;2023-03-14T09:58:29;0.00;;;0.00;;
58252;SDS011;44050;48.884;8.762;2023-03-14T10:01:00;0.00;;;0.00;;
58252;SDS011;44050;48.884;8.762;2023-03-14T10:03:33;0.08;;;0.08;;
58252;SDS011;44050;48.884;8.762;2023-03-14T10:06:09;0.55;;;0.15;;
58252;SDS011;44050;48.884;8.762;2023-03-14T10:08:41;0.10;;;0.10;;
58252;SDS011;44050;48.884;8.762;2023-03-14T10:11:16;0.20;;;0.05;;
58252;SDS011;44050;48.884;8.762;2023-03-14T10:14:09;0.22;;;0.22;;
58252;SDS011;44050;48.884;8.762;2023-03-14T10:16:42;0.20;;;0.00;;
58252;SDS011;44050;48.884;8.762;2023-03-14T10:19:14;2.17;;;0.20;;
58252;SDS011;44050;48.884;8.762;2023-03-14T10:21:52;0.00;;;0.00;;
58252;SDS011;44050;48.884;8.762;2023-03-14T10:24:30;0.00;;;0.00;;
58252;SDS011;44050;48.884;8.762;2023-03-14T10:27:05;0.00;;;0.00;;
58252;SDS011;44050;48.884;8.762;2023-03-14T10:29:51;0.00;;;0.00;;
58252;SDS011;44050;48.884;8.762;2023-03-14T10:32:23;0.00;;;0.00;;
58252;SDS011;44050;48.884;8.762;2023-03-14T10:35:06;0.10;;;0.10;;
58252;SDS011;44050;48.884;8.762;2023-03-14T10:37:47;0.00;;;0.00;;
58252;SDS011;44050;48.884;8.762;2023-03-14T10:40:19;0.00;;;0.00;;
58252;SDS011;44050;48.884;8.762;2023-03-14T10:42:51;0.00;;;0.00;;
58252;SDS011;44050;48.884;8.762;2023-03-14T10:45:25;0.25;;;0.08;;
58252;SDS011;44050;48.884;8.762;2023-03-14T10:47:59;0.10;;;0.10;;
58252;SDS011;44050;48.884;8.762;2023-03-14T10:50:31;0.00;;;0.00;;
58252;SDS011;44050;48.884;8.762;2023-03-14T10:53:02;0.00;;;0.00;;
58252;SDS011;44050;48.884;8.762;2023-03-14T10:55:40;0.00;;;0.00;;
58252;SDS011;44050;48.884;8.762;2023-03-14T10:58:21;0.05;;;0.00;;
58252;SDS011;44050;48.884;8.762;2023-03-14T11:03:35;0.30;;;0.00;;
58252;SDS011;44050;48.884;8.762;2023-03-14T11:06:10;0.00;;;0.00;;
58252;SDS011;44050;48.884;8.762;2023-03-14T11:08:45;0.00;;;0.00;;
58252;SDS011;44050;48.884;8.762;2023-03-14T11:13:51;0.10;;;0.00;;
58252;SDS011;44050;48.884;8.762;2023-03-14T11:21:44;0.00;;;0.00;;
58252;SDS011;44050;48.884;8.762;2023-03-14T11:24:26;0.00;;;0.00;;
58252;SDS011;44050;48.884;8.762;2023-03-14T11:29:55;0.00;;;0.00;;
58252;SDS011;44050;48.884;8.762;2023-03-14T11:32:41;0.00;;;0.00;;
58252;SDS011;44050;48.884;8.762;2023-03-14T11:37:51;0.00;;;0.00;;
58252;SDS011;44050;48.884;8.762;2023-03-14T11:40:23;0.00;;;0.00;;
58252;SDS011;44050;48.884;8.762;2023-03-14T11:45:39;0.10;;;0.10;;
58252;SDS011;44050;48.884;8.762;2023-03-14T11:48:15;0.30;;;0.10;;
58252;SDS011;44050;48.884;8.762;2023-03-14T11:50:48;0.00;;;0.00;;
58252;SDS011;44050;48.884;8.762;2023-03-14T11:55:51;0.38;;;0.38;;
58252;SDS011;44050;48.884;8.762;2023-03-14T11:58:29;0.28;;;0.28;;
58252;SDS011;44050;48.884;8.762;2023-03-14T12:01:02;0.15;;;0.15;;
58252;SDS011;44050;48.884;8.762;2023-03-14T12:09:04;4.60;;;0.98;;
58252;SDS011;44050;48.884;8.762;2023-03-14T12:11:38;0.52;;;0.52;;
58252;SDS011;44050;48.884;8.762;2023-03-14T12:14:18;0.20;;;0.20;;
58252;SDS011;44050;48.884;8.762;2023-03-14T12:16:52;0.85;;;0.85;;
58252;SDS011;44050;48.884;8.762;2023-03-14T12:19:28;2.85;;;1.15;;
58252;SDS011;44050;48.884;8.762;2023-03-14T12:24:50;3.20;;;3.00;;
58252;SDS011;44050;48.884;8.762;2023-03-14T12:27:42;4.68;;;2.78;;
58252;SDS011;44050;48.884;8.762;2023-03-14T12:30:15;2.05;;;1.85;;
58252;SDS011;44050;48.884;8.762;2023-03-14T12:35:37;3.97;;;3.42;;
58252;SDS011;44050;48.884;8.762;2023-03-14T12:40:53;2.03;;;1.83;;
58252;SDS011;44050;48.884;8.762;2023-03-14T12:43:30;1.70;;;1.60;;
58252;SDS011;44050;48.884;8.762;2023-03-14T12:48:48;0.75;;;0.73;;
58252;SDS011;44050;48.884;8.762;2023-03-14T12:51:20;3.13;;;0.60;;
58252;SDS011;44050;48.884;8.762;2023-03-14T12:59:11;0.60;;;0.60;;
58252;SDS011;44050;48.884;8.762;2023-03-14T13:01:46;0.88;;;0.50;;
58252;SDS011;44050;48.884;8.762;2023-03-14T13:04:18;0.20;;;0.20;;
58252;SDS011;44050;48.884;8.762;2023-03-14T13:06:56;0.60;;;0.40;;
58252;SDS011;44050;48.884;8.762;2023-03-14T13:12:10;0.30;;;0.30;;
58252;SDS011;44050;48.884;8.762;2023-03-14T13:14:45;0.22;;;0.22;;
58252;SDS011;44050;48.884;8.762;2023-03-14T13:17:35;0.43;;;0.35;;
58252;SDS011;44050;48.884;8.762;2023-03-14T13:20:11;1.98;;;0.35;;
58252;SDS011;44050;48.884;8.762;2023-03-14T13:22:46;2.17;;;0.30;;
58252;SDS011;44050;48.884;8.762;2023-03-14T13:25:17;0.25;;;0.20;;
58252;SDS011;44050;48.884;8.762;2023-03-14T13:27:54;0.10;;;0.05;;
58252;SDS011;44050;48.884;8.762;2023-03-14T13:30:29;0.38;;;0.20;;
58252;SDS011;44050;48.884;8.762;2023-03-14T13:33:06;0.00;;;0.00;;
58252;SDS011;44050;48.884;8.762;2023-03-14T13:35:41;2.17;;;0.82;;
58252;SDS011;44050;48.884;8.762;2023-03-14T13:38:16;0.57;;;0.57;;
58252;SDS011;44050;48.884;8.762;2023-03-14T13:40:48;0.98;;;0.10;;
58252;SDS011;44050;48.884;8.762;2023-03-14T13:43:32;2.63;;;0.60;;
58252;SDS011;44050;48.884;8.762;2023-03-14T13:46:05;2.72;;;0.30;;
58252;SDS011;44050;48.884;8.762;2023-03-14T13:48:39;0.55;;;0.50;;
58252;SDS011;44050;48.884;8.762;2023-03-14T13:51:12;0.40;;;0.10;;
58252;SDS011;44050;48.884;8.762;2023-03-14T13:56:18;0.00;;;0.00;;
58252;SDS011;44050;48.884;8.762;2023-03-14T13:58:49;0.20;;;0.20;;
58252;SDS011;44050;48.884;8.762;2023-03-14T14:01:22;0.20;;;0.20;;
58252;SDS011;44050;48.884;8.762;2023-03-14T14:03:54;1.65;;;0.52;;
58252;SDS011;44050;48.884;8.762;2023-03-14T14:06:28;2.25;;;1.42;;
58252;SDS011;44050;48.884;8.762;2023-03-14T14:09:00;1.77;;;0.98;;
58252;SDS011;44050;48.884;8.762;2023-03-14T14:14:03;1.77;;;0.43;;
58252;SDS011;44050;48.884;8.762;2023-03-14T14:16:34;1.77;;;0.52;;
58252;SDS011;44050;48.884;8.762;2023-03-14T14:19:05;1.05;;;0.57;;
58252;SDS011;44050;48.884;8.762;2023-03-14T14:21:36;0.98;;;0.63;;
58252;SDS011;44050;48.884;8.762;2023-03-14T14:24:08;0.90;;;0.32;;
58252;SDS011;44050;48.884;8.762;2023-03-14T14:26:41;0.63;;;0.40;;
58252;SDS011;44050;48.884;8.762;2023-03-14T14:29:25;0.95;;;0.90;;
58252;SDS011;44050;48.884;8.762;2023-03-14T14:32:00;0.20;;;0.20;;
58252;SDS011;44050;48.884;8.762;2023-03-14T14:34:42;3.15;;;0.60;;
58252;SDS011;44050;48.884;8.762;2023-03-14T14:37:20;2.03;;;0.98;;
58252;SDS011;44050;48.884;8.762;2023-03-14T14:39:52;1.08;;;0.85;;
58252;SDS011;44050;48.884;8.762;2023-03-14T14:42:30;0.63;;;0.35;;
58252;SDS011;44050;48.884;8.762;2023-03-14T14:45:02;1.15;;;0.38;;
58252;SDS011;44050;48.884;8.762;2023-03-14T14:47:33;0.57;;;0.30;;
58252;SDS011;44050;48.884;8.762;2023-03-14T14:50:04;2.35;;;0.73;;
58252;SDS011;44050;48.884;8.762;2023-03-14T14:52:41;0.50;;;0.50;;
58252;SDS011;44050;48.884;8.762;2023-03-14T14:55:17;0.10;;;0.10;;
58252;SDS011;44050;48.884;8.762;2023-03-14T14:57:50;0.10;;;0.10;;
58252;SDS011;44050;48.884;8.762;2023-03-14T15:00:25;1.05;;;0.45;;
58252;SDS011;44050;48.884;8.762;2023-03-14T15:03:00;1.98;;;0.45;;
58252;SDS011;44050;48.884;8.762;2023-03-14T15:05:31;0.35;;;0.20;;
58252;SDS011;44050;48.884;8.762;2023-03-14T15:08:09;2.40;;;1.02;;
58252;SDS011;44050;48.884;8.762;2023-03-14T15:10:44;0.47;;;0.47;;
58252;SDS011;44050;48.884;8.762;2023-03-14T15:13:14;2.80;;;1.00;;
58252;SDS011;44050;48.884;8.762;2023-03-14T15:15:45;3.00;;;0.80;;
58252;SDS011;44050;48.884;8.762;2023-03-14T15:20:47;0.27;;;0.27;;
58252;SDS011;44050;48.884;8.762;2023-03-14T15:23:19;0.73;;;0.52;;
58252;SDS011;44050;48.884;8.762;2023-03-14T15:25:50;0.25;;;0.25;;
58252;SDS011;44050;48.884;8.762;2023-03-14T15:28:22;1.45;;;0.60;;
58252;SDS011;44050;48.884;8.762;2023-03-14T15:30:55;3.03;;;0.43;;
58252;SDS011;44050;48.884;8.762;2023-03-14T15:33:27;2.25;;;1.08;;
58252;SDS011;44050;48.884;8.762;2023-03-14T15:35:59;1.48;;;0.77;;
58252;SDS011;44050;48.884;8.762;2023-03-14T15:38:31;0.20;;;0.20;;
58252;SDS011;44050;48.884;8.762;2023-03-14T15:41:02;3.53;;;0.82;;
58252;SDS011;44050;48.884;8.762;2023-03-14T15:43:42;3.63;;;0.75;;
58252;SDS011;44050;48.884;8.762;2023-03-14T15:46:19;2.72;;;0.70;;
58252;SDS011;44050;48.884;8.762;2023-03-14T15:48:54;3.22;;;0.38;;
58252;SDS011;44050;48.884;8.762;2023-03-14T15:51:31;0.65;;;0.40;;
58252;SDS011;44050;48.884;8.762;2023-03-14T15:54:03;0.40;;;0.40;;
58252;SDS011;44050;48.884;8.762;2023-03-14T15:56:33;3.88;;;1.67;;
58252;SDS011;44050;48.884;8.762;2023-03-14T15:59:04;1.35;;;0.35;;
58252;SDS011;44050;48.884;8.762;2023-03-14T16:01:35;2.17;;;0.20;;
58252;SDS011;44050;48.884;8.762;2023-03-14T16:04:06;0.73;;;0.40;;
58252;SDS011;44050;48.884;8.762;2023-03-14T16:06:37;0.68;;;0.30;;
58252;SDS011;44050;48.884;8.762;2023-03-14T16:09:07;0.40;;;0.40;;
58252;SDS011;44050;48.884;8.762;2023-03-14T16:11:38;0.50;;;0.45;;
58252;SDS011;44050;48.884;8.762;2023-03-14T16:14:11;0.80;;;0.28;;
58252;SDS011;44050;48.884;8.762;2023-03-14T16:16:41;1.13;;;0.75;;
58252;SDS011;44050;48.884;8.762;2023-03-14T16:19:12;4.25;;;0.50;;
58252;SDS011;44050;48.884;8.762;2023-03-14T16:21:43;3.75;;;0.73;;
58252;SDS011;44050;48.884;8.762;2023-03-14T16:24:13;1.27;;;0.38;;
58252;SDS011;44050;48.884;8.762;2023-03-14T16:26:44;4.68;;;1.38;;
58252;SDS011;44050;48.884;8.762;2023-03-14T16:29:15;2.78;;;2.05;;
58252;SDS011;44050;48.884;8.762;2023-03-14T16:31:46;6.30;;;4.25;;
58252;SDS011;44050;48.884;8.762;2023-03-14T16:34:17;4.32;;;2.47;;
58252;SDS011;44050;48.884;8.762;2023-03-14T16:36:48;4.30;;;3.65;;
58252;SDS011;44050;48.884;8.762;2023-03-14T16:39:21;4.10;;;3.38;;
58252;SDS011;44050;48.884;8.762;2023-03-14T16:41:52;3.25;;;1.77;;
58252;SDS011;44050;48.884;8.762;2023-03-14T16:44:23;2.42;;;0.73;;
58252;SDS011;44050;48.884;8.762;2023-03-14T16:46:53;0.60;;;0.60;;
58252;SDS011;44050;48.884;8.762;2023-03-14T16:49:24;3.22;;;0.45;;
58252;SDS011;44050;48.884;8.762;2023-03-14T16:51:55;1.27;;;0.30;;
58252;SDS011;44050;48.884;8.762;2023-03-14T16:54:26;2.85;;;1.08;;
58252;SDS011;44050;48.884;8.762;2023-03-14T16:56:58;3.85;;;1.55;;